LavenderCAM.net
Leatherhead Weather
 
Leatherhead Weather
 
 





Aviation weather for

London Heathrow (EGLL) and London Gatwick (EGKK)



London Heathrow (EGLL) METAR / Surface Actual
London / Heathrow Airport, United Kingdom (EGLL) 51-29N 000-27W 0M
Nov 20, 2019 - 09:50 PM EST / 2019.11.21 0250 UTC
Wind: from the E (090 degrees) at 8 MPH (7 KT):0
Visibility: 5 mile(s):0
Sky conditions: overcast
Temperature: 39 F (4 C)
Dew Point: 37 F (3 C)
Relative Humidity: 93%
Pressure (altimeter): 29.74 in. Hg (1007 hPa)
ob: EGLL 210250Z AUTO 09007KT 9000 OVC011 04/03 Q1007 NOSIG
cycle: 3
London Heathrow (EGLL) TAF / Forecast
2019/11/20 18:09
TAF EGLL 201658Z 2018/2124 11008KT 9999 FEW030 
      TEMPO 2021/2121 BKN012 
      BECMG 2100/2103 7000 PROB40 
      TEMPO 2100/2113 BKN008 
      BECMG 2118/2121 9999 
      TEMPO 2121/2124 7000 RA BKN008


London Gatwick (EGKK) METAR / Surface Actual
London / Gatwick Airport, United Kingdom (EGKK) 51-09N 000-11W 0M
Nov 20, 2019 - 09:50 PM EST / 2019.11.21 0250 UTC
Wind: from the E (080 degrees) at 6 MPH (5 KT):0
Visibility: greater than 7 mile(s):0
Sky conditions: mostly cloudy
Temperature: 41 F (5 C)
Dew Point: 37 F (3 C)
Relative Humidity: 86%
Pressure (altimeter): 29.71 in. Hg (1006 hPa)
ob: EGKK 210250Z 08005KT 9999 BKN010 05/03 Q1006
cycle: 3
London Gatwick (EGKK) TAF / Forecast
2019/11/20 18:09
TAF EGKK 201657Z 2018/2124 09008KT 9999 SCT030 
      TEMPO 2020/2103 BKN012 PROB40 
      TEMPO 2023/2103 7000 BKN008 
      BECMG 2103/2106 7000 BKN010 
      TEMPO 2103/2116 BKN008 
      BECMG 2118/2121 9999 SCT015 
      BECMG 2121/2124 BKN012 
      TEMPO 2121/2124 6000 RA BKN009